Time;durP1;ratioP1;P1;durP2;ratioP2;P2;SDS_P1;SDS_P2;PMS_P1;PMS_P2;Temp;Humidity;BMP_temperature;BMP_pressure;BME280_temperature;BME280_humidity;BME280_pressure;Samples;Min_cycle;Max_cycle;Signal;HPM_P1;HPM_P2
2021/04/19 00:01:58;;;;;;;12.07;10.17;;;6.70;99.90;;;;;;5073299;28;20931;-86
2021/04/19 00:04:24;;;;;;;15.10;11.00;;;6.70;99.90;;;;;;5073377;28;20437;-86
2021/04/19 00:06:50;;;;;;;18.00;11.07;;;6.70;99.90;;;;;;5073425;28;20449;-86
2021/04/19 00:09:16;;;;;;;14.87;11.60;;;6.70;99.90;;;;;;5073356;28;20506;-86
2021/04/19 00:11:43;;;;;;;15.23;12.10;;;6.70;99.90;;;;;;5073295;28;20489;-85
2021/04/19 00:14:09;;;;;;;14.07;11.40;;;6.60;99.90;;;;;;5073314;28;20452;-86
2021/04/19 00:16:35;;;;;;;16.07;11.27;;;6.60;99.90;;;;;;5073369;28;20805;-86
2021/04/19 00:19:03;;;;;;;15.70;11.27;;;6.60;99.90;;;;;;5073039;28;20444;-85
2021/04/19 00:21:30;;;;;;;16.07;10.50;;;6.60;99.90;;;;;;5073187;28;20425;-85
2021/04/19 00:23:56;;;;;;;14.60;10.10;;;6.50;99.90;;;;;;5073321;28;20444;-86
2021/04/19 00:26:22;;;;;;;14.40;10.87;;;6.60;99.90;;;;;;5073385;28;20468;-86
2021/04/19 00:28:49;;;;;;;16.40;10.90;;;6.50;99.90;;;;;;5073245;28;20496;-86
2021/04/19 00:31:15;;;;;;;17.90;11.70;;;6.50;99.90;;;;;;5073123;28;20481;-85
2021/04/19 00:33:41;;;;;;;14.70;10.43;;;6.40;99.90;;;;;;5072921;28;20510;-85
2021/04/19 00:36:10;;;;;;;14.10;11.20;;;6.40;99.90;;;;;;5073160;28;20468;-85
2021/04/19 00:38:36;;;;;;;14.40;11.00;;;6.40;99.90;;;;;;5072783;28;20484;-85
2021/04/19 00:41:04;;;;;;;14.97;11.00;;;6.30;99.90;;;;;;5073133;28;20444;-86
2021/04/19 00:43:30;;;;;;;14.53;10.87;;;6.40;99.90;;;;;;5073100;28;20818;-77
2021/04/19 00:46:02;;;;;;;16.10;10.80;;;6.40;99.90;;;;;;5072935;28;20460;-77
2021/04/19 00:48:29;;;;;;;18.00;12.03;;;6.40;99.90;;;;;;5073020;28;20494;-77
2021/04/19 00:50:56;;;;;;;15.30;11.10;;;6.40;99.90;;;;;;5072658;28;20891;-77
2021/04/19 00:53:24;;;;;;;17.13;11.60;;;6.30;99.90;;;;;;5072923;28;20536;-77
2021/04/19 00:55:52;;;;;;;16.13;11.63;;;6.30;99.90;;;;;;5072833;28;20473;-77
2021/04/19 00:58:19;;;;;;;16.97;12.40;;;6.30;99.90;;;;;;5072867;28;20574;-77
2021/04/19 01:00:45;;;;;;;15.60;11.63;;;6.30;99.90;;;;;;5072886;28;20453;-77
2021/04/19 01:03:12;;;;;;;15.33;11.57;;;6.30;99.90;;;;;;5073744;28;20856;-77
2021/04/19 01:05:41;;;;;;;14.50;11.70;;;6.30;99.90;;;;;;5072460;28;20975;-77
2021/04/19 01:08:08;;;;;;;18.83;11.50;;;6.30;99.90;;;;;;5072823;28;20429;-77
2021/04/19 01:10:36;;;;;;;16.70;11.80;;;6.30;99.90;;;;;;5072670;28;20485;-77
2021/04/19 01:13:03;;;;;;;18.27;12.00;;;6.40;99.90;;;;;;5072749;28;20509;-77
2021/04/19 01:15:29;;;;;;;21.17;12.53;;;6.40;99.90;;;;;;5072499;28;20449;-77
2021/04/19 01:17:55;;;;;;;16.50;11.47;;;6.40;99.90;;;;;;5072820;28;20441;-77
2021/04/19 01:20:23;;;;;;;13.93;10.93;;;6.30;99.90;;;;;;5072637;28;20445;-77
2021/04/19 01:22:51;;;;;;;17.33;12.03;;;6.30;99.90;;;;;;5072658;28;20452;-77
2021/04/19 01:25:21;;;;;;;14.40;11.80;;;6.30;99.90;;;;;;5072567;28;20476;-77
2021/04/19 01:27:48;;;;;;;15.70;11.30;;;6.20;99.90;;;;;;5072624;28;20448;-77
2021/04/19 01:30:16;;;;;;;19.17;11.50;;;6.20;99.90;;;;;;5072549;28;20892;-77
2021/04/19 01:32:43;;;;;;;16.93;12.57;;;6.20;99.90;;;;;;5074855;28;20448;-82
2021/04/19 01:35:10;;;;;;;17.03;11.70;;;6.10;99.90;;;;;;5076043;28;20467;-82
2021/04/19 01:37:37;;;;;;;18.17;11.70;;;6.10;99.90;;;;;;5075867;28;20440;-82
2021/04/19 01:40:06;;;;;;;18.80;12.90;;;6.10;99.90;;;;;;5075796;28;20958;-82
2021/04/19 01:42:32;;;;;;;16.00;11.67;;;6.10;99.90;;;;;;5076046;28;20449;-82
2021/04/19 01:44:58;;;;;;;18.40;13.03;;;6.10;99.90;;;;;;5075888;28;20465;-82
2021/04/19 01:47:25;;;;;;;17.90;12.43;;;6.10;99.90;;;;;;5076073;28;20440;-82
2021/04/19 01:49:51;;;;;;;19.20;14.03;;;6.10;99.90;;;;;;5075538;28;20437;-82
2021/04/19 01:52:17;;;;;;;20.43;12.60;;;6.10;99.90;;;;;;5075778;28;20457;-82
2021/04/19 01:54:44;;;;;;;19.90;12.83;;;6.20;99.90;;;;;;5075729;28;20476;-82
2021/04/19 01:57:11;;;;;;;17.40;13.30;;;6.10;99.90;;;;;;5075756;28;20471;-82
2021/04/19 01:59:39;;;;;;;20.40;12.07;;;6.20;99.90;;;;;;5075682;28;20452;-82
2021/04/19 02:02:10;;;;;;;16.73;12.83;;;6.20;99.90;;;;;;5075327;28;20460;-82
2021/04/19 02:04:47;;;;;;;18.80;12.30;;;6.20;99.90;;;;;;5075579;28;20465;-82
2021/04/19 02:07:23;;;;;;;19.33;13.07;;;6.20;99.90;;;;;;5076235;28;20429;-82
2021/04/19 02:09:56;;;;;;;21.07;12.80;;;6.30;99.90;;;;;;5075572;28;20429;-82
2021/04/19 02:12:33;;;;;;;21.13;12.40;;;6.20;99.90;;;;;;5075562;28;20441;-82
2021/04/19 02:15:05;;;;;;;18.07;12.77;;;6.30;99.90;;;;;;5075351;28;20444;-82
2021/04/19 02:17:41;;;;;;;16.03;12.60;;;6.20;99.90;;;;;;5075111;28;20413;-82
2021/04/19 02:20:12;;;;;;;19.60;12.90;;;6.30;99.90;;;;;;5075258;28;20433;-82
2021/04/19 02:22:44;;;;;;;18.27;13.30;;;6.20;99.90;;;;;;5075232;28;20445;-82
2021/04/19 02:25:15;;;;;;;15.90;12.17;;;6.20;99.90;;;;;;5075153;28;20469;-82
2021/04/19 02:27:47;;;;;;;19.33;13.60;;;6.30;99.90;;;;;;5075151;28;20429;-82
2021/04/19 02:30:15;;;;;;;20.23;12.80;;;6.30;99.90;;;;;;5075063;28;20469;-76
2021/04/19 02:32:46;;;;;;;17.80;12.70;;;6.20;99.90;;;;;;5075090;28;20499;-75
2021/04/19 02:35:17;;;;;;;18.00;12.70;;;6.20;99.90;;;;;;5074915;28;20465;-76
2021/04/19 02:37:45;;;;;;;18.90;13.10;;;6.20;99.90;;;;;;5074676;28;20456;-76
2021/04/19 02:40:13;;;;;;;19.60;13.37;;;6.20;99.90;;;;;;5074549;28;20426;-76
2021/04/19 02:42:42;;;;;;;20.40;13.23;;;6.20;99.90;;;;;;5074405;28;20615;-75
2021/04/19 02:45:14;;;;;;;19.70;12.93;;;6.10;99.90;;;;;;5074396;28;20542;-76
2021/04/19 02:47:41;;;;;;;17.90;12.57;;;6.10;99.90;;;;;;5074414;28;21016;-75
2021/04/19 02:50:12;;;;;;;18.57;12.30;;;6.10;99.90;;;;;;5074309;28;20538;-75
2021/04/19 02:52:38;;;;;;;16.83;12.90;;;6.00;99.90;;;;;;5074382;28;20436;-75
2021/04/19 02:55:06;;;;;;;21.00;12.97;;;6.00;99.90;;;;;;5074139;28;20473;-75
2021/04/19 02:57:37;;;;;;;20.83;14.40;;;6.00;99.90;;;;;;5074549;28;20468;-76
2021/04/19 03:00:05;;;;;;;21.43;15.33;;;6.10;99.90;;;;;;5074267;28;20421;-75
2021/04/19 03:02:33;;;;;;;23.77;14.43;;;6.10;99.90;;;;;;5074434;28;20813;-75
2021/04/19 03:05:02;;;;;;;21.50;13.73;;;6.20;99.90;;;;;;5073981;28;20480;-76
2021/04/19 03:07:35;;;;;;;24.80;13.47;;;6.20;99.90;;;;;;5074332;28;20856;-75
2021/04/19 03:10:07;;;;;;;19.67;14.27;;;6.10;99.90;;;;;;5074771;28;20483;-76
2021/04/19 03:12:36;;;;;;;24.10;14.50;;;6.10;99.90;;;;;;5075119;28;20779;-76
2021/04/19 03:15:06;;;;;;;25.03;15.40;;;6.10;99.90;;;;;;5074508;28;20480;-76
2021/04/19 03:17:35;;;;;;;25.10;15.00;;;6.10;99.90;;;;;;5074621;28;20479;-76
2021/04/19 03:20:05;;;;;;;21.53;13.87;;;6.10;99.90;;;;;;5073804;28;20970;-76
2021/04/19 03:22:34;;;;;;;20.07;13.80;;;6.10;99.90;;;;;;5073917;28;20459;-76
2021/04/19 03:25:02;;;;;;;17.60;13.47;;;6.10;99.90;;;;;;5073958;28;20457;-75
2021/04/19 03:27:28;;;;;;;19.43;13.03;;;6.10;99.90;;;;;;5073653;28;20960;-76
2021/04/19 03:29:56;;;;;;;21.00;13.30;;;6.00;99.90;;;;;;5073838;28;20453;-75
2021/04/19 03:32:30;;;;;;;20.90;13.73;;;5.90;99.90;;;;;;5073627;28;20441;-76
2021/04/19 03:34:59;;;;;;;21.73;13.00;;;5.90;99.90;;;;;;5073493;28;20990;-81
2021/04/19 03:37:30;;;;;;;15.97;11.90;;;5.80;99.90;;;;;;5073799;28;20438;-81
2021/04/19 03:40:00;;;;;;;20.83;14.10;;;5.80;99.90;;;;;;5033930;28;20427;-81
2021/04/19 03:42:26;;;;;;;19.03;12.47;;;5.80;99.90;;;;;;5034113;28;20529;-81
2021/04/19 03:44:55;;;;;;;18.70;13.17;;;5.90;99.90;;;;;;5033463;28;20462;-81
2021/04/19 03:47:23;;;;;;;16.80;12.63;;;5.80;99.90;;;;;;5033487;28;20450;-81
2021/04/19 03:49:54;;;;;;;22.13;13.97;;;5.80;99.90;;;;;;5033692;28;20439;-82
2021/04/19 03:52:26;;;;;;;24.83;13.27;;;5.80;99.90;;;;;;5033711;28;20430;-82
2021/04/19 03:54:54;;;;;;;18.57;12.80;;;5.80;99.90;;;;;;5033169;28;20474;-81
2021/04/19 03:57:23;;;;;;;22.97;13.67;;;5.70;99.90;;;;;;5033649;28;20478;-81
2021/04/19 03:59:52;;;;;;;17.20;13.00;;;5.80;99.90;;;;;;5033273;28;20958;-81
2021/04/19 04:02:21;;;;;;;21.97;14.27;;;5.80;99.90;;;;;;5033531;28;20450;-81
2021/04/19 04:04:48;;;;;;;21.47;13.03;;;5.80;99.90;;;;;;5033426;28;20474;-81
2021/04/19 04:07:15;;;;;;;19.90;13.07;;;5.80;99.90;;;;;;5033128;28;20472;-81
2021/04/19 04:09:43;;;;;;;25.97;16.17;;;5.80;99.90;;;;;;5033488;28;20449;-81
2021/04/19 04:12:10;;;;;;;24.00;13.60;;;5.80;99.90;;;;;;5033149;28;20569;-81
2021/04/19 04:14:48;;;;;;;18.90;12.97;;;5.80;99.90;;;;;;5033305;28;20521;-81
2021/04/19 04:17:15;;;;;;;19.37;12.87;;;5.70;99.90;;;;;;5033408;28;20435;-81
2021/04/19 04:19:41;;;;;;;24.20;13.67;;;5.70;99.90;;;;;;5033340;28;20442;-82
2021/04/19 04:22:08;;;;;;;20.60;12.10;;;5.70;99.90;;;;;;5033508;28;20785;-87
2021/04/19 04:24:35;;;;;;;22.30;13.00;;;5.70;99.90;;;;;;5033286;28;20794;-86
2021/04/19 04:27:02;;;;;;;18.90;12.90;;;5.70;99.90;;;;;;5033461;28;20451;-85
2021/04/19 04:29:29;;;;;;;19.93;12.63;;;5.70;99.90;;;;;;5033379;28;20497;-86
2021/04/19 04:31:55;;;;;;;20.37;13.33;;;5.70;99.90;;;;;;5033401;28;20471;-86
2021/04/19 04:34:21;;;;;;;19.70;13.93;;;5.70;99.90;;;;;;5032943;28;20439;-85
2021/04/19 04:36:47;;;;;;;18.93;13.27;;;5.70;99.90;;;;;;5033269;28;20443;-86
2021/04/19 04:39:14;;;;;;;19.73;12.37;;;5.60;99.90;;;;;;5061441;28;20511;-86
2021/04/19 04:41:40;;;;;;;16.67;12.40;;;5.60;99.90;;;;;;5073552;28;20536;-86
2021/04/19 04:44:09;;;;;;;18.53;13.03;;;5.60;99.90;;;;;;5073230;28;20449;-86
2021/04/19 04:46:41;;;;;;;17.93;12.83;;;5.60;99.90;;;;;;5073004;28;21010;-86
2021/04/19 04:49:13;;;;;;;19.77;12.73;;;5.60;99.90;;;;;;5072870;28;20787;-75
2021/04/19 04:51:41;;;;;;;17.63;12.47;;;5.60;99.90;;;;;;5072920;28;20473;-76
2021/04/19 04:54:10;;;;;;;21.20;12.83;;;5.60;99.90;;;;;;5072946;28;20452;-75
2021/04/19 04:56:39;;;;;;;18.50;12.67;;;5.70;99.90;;;;;;5072922;28;20453;-75
2021/04/19 04:59:07;;;;;;;18.67;12.17;;;5.80;99.90;;;;;;5072916;28;20455;-75
2021/04/19 05:01:34;;;;;;;18.43;13.10;;;5.70;99.90;;;;;;5072717;28;20510;-75
2021/04/19 05:04:02;;;;;;;23.53;13.30;;;5.80;99.90;;;;;;5072840;28;20452;-75
2021/04/19 05:06:29;;;;;;;17.17;13.33;;;5.80;99.90;;;;;;5073173;28;20468;-75
2021/04/19 05:08:56;;;;;;;19.83;14.03;;;5.80;99.90;;;;;;5076745;28;20448;-75
2021/04/19 05:11:22;;;;;;;20.20;13.07;;;5.80;99.90;;;;;;5077876;28;20484;-75
2021/04/19 05:13:49;;;;;;;18.73;12.83;;;5.80;99.90;;;;;;5076517;28;20444;-75
2021/04/19 05:16:25;;;;;;;20.40;14.07;;;5.80;99.90;;;;;;5076444;28;20460;-76
2021/04/19 05:18:51;;;;;;;17.73;11.83;;;5.80;99.90;;;;;;5076469;28;20429;-75
2021/04/19 05:21:17;;;;;;;22.40;13.27;;;5.80;99.90;;;;;;5076042;28;20955;-75
2021/04/19 05:23:44;;;;;;;16.87;11.43;;;5.70;99.90;;;;;;5076380;28;20445;-75
2021/04/19 05:26:11;;;;;;;18.67;12.57;;;5.70;99.90;;;;;;5076263;28;20471;-75
2021/04/19 05:28:38;;;;;;;19.47;13.20;;;5.70;99.90;;;;;;5076254;28;20502;-75
2021/04/19 05:31:04;;;;;;;21.30;12.80;;;5.70;99.90;;;;;;5076151;28;20491;-75
2021/04/19 05:33:31;;;;;;;24.00;16.87;;;5.70;99.90;;;;;;5076172;28;20476;-76
2021/04/19 05:35:57;;;;;;;21.90;13.73;;;5.70;99.90;;;;;;5075985;28;20457;-81
2021/04/19 05:38:25;;;;;;;19.43;13.00;;;5.70;99.90;;;;;;5075477;28;20477;-82
2021/04/19 05:40:53;;;;;;;17.87;12.30;;;5.70;99.90;;;;;;5075939;28;20519;-82
2021/04/19 05:43:19;;;;;;;21.20;12.90;;;5.80;99.90;;;;;;5075642;28;20865;-82
2021/04/19 05:45:47;;;;;;;22.20;13.67;;;5.70;99.90;;;;;;5076493;28;20476;-82
2021/04/19 05:48:14;;;;;;;19.13;13.03;;;5.70;99.90;;;;;;5075921;28;20846;-82
2021/04/19 05:50:43;;;;;;;19.53;12.10;;;5.60;99.90;;;;;;5075499;28;20854;-82
2021/04/19 05:53:12;;;;;;;21.00;13.10;;;5.50;99.90;;;;;;5075838;28;20449;-82
2021/04/19 05:55:39;;;;;;;20.17;12.87;;;5.50;99.90;;;;;;5075664;28;20467;-81
2021/04/19 05:58:15;;;;;;;17.60;13.13;;;5.50;99.90;;;;;;5076378;28;20453;-82
2021/04/19 06:00:55;;;;;;;19.37;13.23;;;5.50;99.90;;;;;;5075415;28;20424;-81
2021/04/19 06:03:26;;;;;;;21.33;12.80;;;5.50;99.90;;;;;;5075667;28;20433;-82
2021/04/19 06:06:02;;;;;;;21.87;14.33;;;5.60;99.90;;;;;;5075404;28;20473;-82
2021/04/19 06:08:36;;;;;;;21.33;13.10;;;5.50;99.90;;;;;;5075488;28;20432;-82
2021/04/19 06:11:08;;;;;;;20.07;13.93;;;5.50;99.90;;;;;;5075401;28;20465;-82
2021/04/19 06:13:35;;;;;;;20.77;13.87;;;5.50;99.90;;;;;;5075120;28;20429;-82
2021/04/19 06:16:03;;;;;;;22.10;14.23;;;5.50;99.90;;;;;;5075325;28;20468;-82
2021/04/19 06:18:31;;;;;;;18.60;12.43;;;5.50;99.90;;;;;;5074517;28;20448;-82
2021/04/19 06:21:01;;;;;;;17.57;12.30;;;5.60;99.90;;;;;;5075035;28;20478;-82
2021/04/19 06:23:28;;;;;;;20.13;13.47;;;5.60;99.90;;;;;;5075296;28;20429;-81
2021/04/19 06:25:54;;;;;;;20.83;12.03;;;5.60;99.90;;;;;;5075057;28;20856;-74
2021/04/19 06:28:24;;;;;;;19.70;12.57;;;5.60;99.90;;;;;;5075029;28;20449;-75
2021/04/19 06:30:51;;;;;;;21.07;13.17;;;5.60;99.90;;;;;;5074640;28;21003;-75
2021/04/19 06:33:19;;;;;;;21.73;13.20;;;5.50;99.90;;;;;;5074926;28;20459;-75
2021/04/19 06:35:47;;;;;;;21.70;14.23;;;5.50;99.90;;;;;;5074917;28;20518;-75
2021/04/19 06:38:15;;;;;;;21.63;13.77;;;5.50;99.90;;;;;;5074672;28;20535;-75
2021/04/19 06:40:43;;;;;;;20.87;13.97;;;5.50;99.90;;;;;;5074821;28;20452;-75
2021/04/19 06:43:10;;;;;;;20.67;13.27;;;5.50;99.90;;;;;;5075361;28;20445;-75
2021/04/19 06:45:38;;;;;;;27.90;15.23;;;5.50;99.90;;;;;;5074329;28;20476;-75
2021/04/19 06:48:06;;;;;;;20.73;13.80;;;5.50;99.90;;;;;;5074417;28;20971;-76
2021/04/19 06:50:33;;;;;;;24.47;14.77;;;5.50;99.90;;;;;;5074673;28;20554;-76
2021/04/19 06:52:59;;;;;;;21.83;14.70;;;5.50;99.90;;;;;;5074610;28;20464;-76
2021/04/19 06:55:27;;;;;;;23.67;14.83;;;5.50;99.90;;;;;;5074214;28;20976;-76
2021/04/19 06:57:55;;;;;;;22.70;14.30;;;5.50;99.90;;;;;;5074464;28;20445;-76
2021/04/19 07:00:23;;;;;;;25.20;15.57;;;5.50;99.90;;;;;;5074158;28;20819;-76
2021/04/19 07:02:51;;;;;;;29.47;16.90;;;5.50;99.90;;;;;;5074385;28;20507;-75
2021/04/19 07:05:20;;;;;;;24.70;15.77;;;5.50;99.90;;;;;;5074001;28;20452;-76
2021/04/19 07:07:57;;;;;;;25.17;14.90;;;5.50;99.90;;;;;;5074386;28;20453;-76
2021/04/19 07:10:23;;;;;;;26.17;15.53;;;5.60;99.90;;;;;;5074214;28;20487;-76
2021/04/19 07:12:52;;;;;;;24.73;15.10;;;5.60;99.90;;;;;;5074245;28;20440;-76
2021/04/19 07:15:20;;;;;;;22.73;14.93;;;5.60;99.90;;;;;;5074089;28;20465;-76
2021/04/19 07:17:49;;;;;;;21.87;14.57;;;5.60;99.90;;;;;;5074134;28;20448;-76
2021/04/19 07:20:16;;;;;;;22.80;13.63;;;5.60;99.90;;;;;;5073831;28;20966;-76
2021/04/19 07:22:43;;;;;;;22.57;13.70;;;5.70;99.90;;;;;;5074098;28;20445;-76
2021/04/19 07:25:10;;;;;;;21.10;12.87;;;5.70;99.90;;;;;;5073917;28;20477;-76
2021/04/19 07:27:39;;;;;;;23.40;13.00;;;5.70;99.90;;;;;;5073733;28;20414;-76
2021/04/19 07:30:08;;;;;;;23.57;14.47;;;5.80;99.90;;;;;;5073209;28;20421;-76
2021/04/19 07:32:36;;;;;;;26.60;14.50;;;5.80;99.90;;;;;;5073919;28;20469;-76
2021/04/19 07:35:08;;;;;;;19.70;13.10;;;6.00;99.90;;;;;;5073526;28;20472;-76
2021/04/19 07:37:35;;;;;;;21.97;13.13;;;6.00;99.90;;;;;;5073688;28;20421;-76
2021/04/19 07:40:03;;;;;;;21.73;15.37;;;6.00;99.90;;;;;;5074661;28;20502;-76
2021/04/19 07:42:29;;;;;;;21.87;14.10;;;5.90;99.90;;;;;;5073484;28;20429;-76
2021/04/19 07:44:56;;;;;;;21.20;14.67;;;6.00;99.90;;;;;;5073671;28;20469;-76
2021/04/19 07:47:41;;;;;;;25.80;14.33;;;5.90;99.90;;;;;;5074466;28;20823;-76
2021/04/19 07:50:13;;;;;;;20.30;12.63;;;6.00;99.90;;;;;;5073447;28;20440;-76
2021/04/19 07:52:55;;;;;;;22.70;14.67;;;6.00;99.90;;;;;;5073351;28;20445;-76
2021/04/19 07:55:24;;;;;;;24.73;14.03;;;6.00;99.90;;;;;;5073115;28;20460;-76
2021/04/19 07:57:51;;;;;;;23.20;14.90;;;6.10;99.90;;;;;;5073600;28;20528;-76
2021/04/19 08:00:35;;;;;;;21.70;13.43;;;6.10;99.90;;;;;;5073594;28;20442;-76
2021/04/19 08:03:05;;;;;;;22.53;14.23;;;6.20;99.90;;;;;;5073282;28;20424;-76
2021/04/19 08:05:33;;;;;;;20.43;13.50;;;6.20;99.90;;;;;;5073145;28;20976;-76
2021/04/19 08:08:00;;;;;;;25.77;15.50;;;6.20;99.90;;;;;;5073445;28;20437;-75
2021/04/19 08:10:27;;;;;;;17.17;13.33;;;6.30;99.90;;;;;;5072974;28;20904;-76
2021/04/19 08:13:09;;;;;;;22.63;14.00;;;6.30;99.90;;;;;;5073413;28;20448;-75
2021/04/19 08:15:37;;;;;;;22.30;13.83;;;6.30;99.90;;;;;;5073295;28;20475;-75
2021/04/19 08:18:06;;;;;;;17.67;12.37;;;6.30;99.90;;;;;;5073002;28;20864;-75
2021/04/19 08:20:33;;;;;;;21.50;13.60;;;6.30;99.90;;;;;;5073284;28;20444;-75
2021/04/19 08:23:04;;;;;;;22.67;13.67;;;6.30;99.90;;;;;;5450122;22;20444;-79
2021/04/19 08:28:08;;;;;;;22.47;13.00;;;6.40;99.90;;;;;;5109851;22;20491;-75
2021/04/19 08:30:36;;;;;;;20.30;12.67;;;6.40;99.90;;;;;;5093024;28;20923;-75
2021/04/19 08:33:03;;;;;;;22.17;13.37;;;6.40;99.90;;;;;;5093152;28;20431;-75
2021/04/19 08:35:30;;;;;;;22.57;14.53;;;6.40;99.90;;;;;;5093333;28;20471;-75
2021/04/19 08:37:59;;;;;;;23.67;12.87;;;6.40;99.90;;;;;;5093355;28;20432;-75
2021/04/19 08:40:27;;;;;;;21.17;13.23;;;6.40;99.90;;;;;;5093719;28;20792;-74
2021/04/19 08:42:54;;;;;;;24.37;13.93;;;6.50;99.90;;;;;;5097485;28;20443;-75
2021/04/19 08:45:21;;;;;;;20.17;14.23;;;6.50;99.90;;;;;;5097436;28;20476;-75
2021/04/19 08:47:47;;;;;;;19.70;14.03;;;6.50;99.90;;;;;;5097355;28;20436;-74
2021/04/19 08:50:21;;;;;;;24.10;14.73;;;6.60;99.90;;;;;;5097349;28;20436;-75
2021/04/19 08:52:48;;;;;;;23.87;15.83;;;6.60;99.90;;;;;;5097296;28;20428;-75
2021/04/19 08:55:15;;;;;;;22.73;14.43;;;6.70;99.90;;;;;;5096826;28;20478;-75
2021/04/19 08:57:42;;;;;;;20.23;13.27;;;6.80;99.90;;;;;;5097369;28;20409;-81
2021/04/19 09:00:11;;;;;;;22.03;14.43;;;6.80;99.90;;;;;;5097352;28;20436;-81
2021/04/19 09:02:37;;;;;;;17.77;12.87;;;6.80;99.90;;;;;;5097399;28;20428;-81
2021/04/19 09:05:09;;;;;;;22.20;14.40;;;6.90;99.90;;;;;;5096901;28;20558;-81
2021/04/19 09:07:38;;;;;;;21.07;14.07;;;7.00;99.90;;;;;;5097286;28;20485;-81
2021/04/19 09:10:06;;;;;;;21.20;14.50;;;7.00;99.90;;;;;;5096986;28;20436;-81
2021/04/19 09:12:32;;;;;;;25.50;15.10;;;7.10;99.90;;;;;;5096764;28;20467;-81
2021/04/19 09:15:27;;;;;;;25.03;14.60;;;7.10;99.90;;;;;;5097040;28;20452;-81
2021/04/19 09:18:18;;;;;;;20.97;13.93;;;7.20;99.90;;;;;;5082807;28;20459;-81
2021/04/19 09:20:49;;;;;;;23.57;14.53;;;7.30;99.90;;;;;;5093567;28;20815;-81
2021/04/19 09:23:25;;;;;;;23.13;14.40;;;7.30;99.90;;;;;;5096693;28;20489;-81
2021/04/19 09:25:52;;;;;;;20.97;15.43;;;7.30;99.90;;;;;;5096872;28;20550;-81
2021/04/19 09:28:55;;;;;;;24.77;16.70;;;7.40;99.90;;;;;;5096350;28;20911;-81
2021/04/19 09:31:57;;;;;;;21.43;14.90;;;7.30;99.90;;;;;;5097080;28;20467;-75
2021/04/19 09:34:44;;;;;;;28.03;15.80;;;7.20;99.90;;;;;;5096087;28;20912;-75
2021/04/19 09:37:12;;;;;;;26.57;16.47;;;7.30;99.90;;;;;;5096363;28;20455;-75
2021/04/19 09:39:57;;;;;;;23.03;15.87;;;7.30;99.90;;;;;;5096031;28;20903;-75
2021/04/19 09:43:05;;;;;;;22.53;15.53;;;7.30;99.90;;;;;;5096181;28;20588;-75
2021/04/19 09:46:00;;;;;;;22.23;14.43;;;7.20;99.90;;;;;;5096248;28;20472;-75
2021/04/19 09:48:39;;;;;;;28.73;16.43;;;7.30;99.90;;;;;;5060416;28;20448;-75
2021/04/19 09:51:12;;;;;;;29.60;17.70;;;7.20;99.90;;;;;;5096077;28;20464;-75
2021/04/19 09:53:39;;;;;;;24.90;15.93;;;7.20;99.90;;;;;;5095288;28;20437;-75
2021/04/19 09:56:06;;;;;;;26.80;16.27;;;7.20;99.90;;;;;;5095672;28;20470;-75
2021/04/19 09:58:36;;;;;;;26.20;16.40;;;7.30;99.90;;;;;;5096055;28;20436;-76
2021/04/19 10:01:03;;;;;;;25.40;16.80;;;7.30;99.90;;;;;;5097033;28;20433;-79
2021/04/19 10:03:29;;;;;;;30.60;16.80;;;7.20;99.90;;;;;;5099319;28;20435;-79
2021/04/19 10:05:58;;;;;;;27.23;16.70;;;7.20;99.90;;;;;;5095815;28;20468;-79
2021/04/19 10:08:26;;;;;;;30.27;16.83;;;7.20;99.90;;;;;;5095812;28;20432;-79
2021/04/19 10:10:53;;;;;;;25.00;16.23;;;7.20;99.90;;;;;;5095406;28;20460;-78
2021/04/19 10:13:28;;;;;;;28.67;16.23;;;7.30;99.90;;;;;;5095803;28;20432;-79
2021/04/19 10:16:05;;;;;;;25.47;16.00;;;7.30;99.90;;;;;;5095864;28;20452;-79
2021/04/19 10:18:32;;;;;;;31.13;17.93;;;7.30;99.90;;;;;;5095646;28;20428;-78
2021/04/19 10:20:59;;;;;;;31.10;17.97;;;7.40;99.90;;;;;;5095583;28;20424;-78
2021/04/19 10:23:36;;;;;;;31.00;16.80;;;7.40;99.90;;;;;;5095529;28;20425;-78
2021/04/19 10:26:03;;;;;;;27.27;17.17;;;7.60;99.90;;;;;;5096948;28;20962;-78
2021/04/19 10:28:33;;;;;;;28.27;18.57;;;7.60;99.90;;;;;;5095278;28;20424;-78
2021/04/19 10:31:20;;;;;;;31.33;18.30;;;7.70;99.90;;;;;;5095380;28;20551;-78
2021/04/19 10:33:48;;;;;;;26.60;16.17;;;7.70;99.90;;;;;;5090336;28;20467;-78
2021/04/19 10:36:17;;;;;;;28.43;17.63;;;7.80;99.90;;;;;;5095200;28;20509;-78
2021/04/19 10:38:46;;;;;;;27.30;17.30;;;7.80;99.90;;;;;;5094913;28;20432;-78
2021/04/19 10:41:13;;;;;;;27.90;16.10;;;7.90;99.90;;;;;;5095210;28;20424;-78
2021/04/19 10:43:42;;;;;;;24.77;16.00;;;7.90;99.90;;;;;;5094829;28;20425;-78
2021/04/19 10:46:25;;;;;;;22.73;14.70;;;8.00;99.90;;;;;;5094694;28;20460;-78
2021/04/19 10:48:54;;;;;;;37.70;16.10;;;7.90;99.90;;;;;;5095079;28;20435;-79
2021/04/19 10:51:23;;;;;;;26.20;15.63;;;7.90;99.90;;;;;;5094971;28;20468;-79
2021/04/19 10:53:49;;;;;;;25.90;15.20;;;7.90;99.90;;;;;;5094977;28;20437;-78
2021/04/19 10:56:21;;;;;;;21.90;14.93;;;7.90;99.90;;;;;;5094824;28;20471;-79
2021/04/19 10:58:50;;;;;;;25.03;14.50;;;7.90;99.90;;;;;;5094900;28;20432;-79
2021/04/19 11:01:27;;;;;;;24.53;15.90;;;7.90;99.90;;;;;;5094881;28;20482;-78
2021/04/19 11:03:54;;;;;;;19.07;13.00;;;8.00;99.90;;;;;;5094786;28;20440;-79
2021/04/19 11:06:21;;;;;;;20.97;14.10;;;8.00;99.90;;;;;;5094615;28;20826;-79
2021/04/19 11:08:53;;;;;;;28.30;16.53;;;8.00;99.90;;;;;;5094379;28;20432;-79
2021/04/19 11:11:40;;;;;;;26.93;14.97;;;8.00;99.90;;;;;;5094242;28;20460;-78
2021/04/19 11:14:16;;;;;;;21.40;13.90;;;8.00;99.90;;;;;;5091909;28;20451;-79
2021/04/19 11:17:04;;;;;;;23.47;14.17;;;8.10;99.90;;;;;;5094186;28;20428;-79
2021/04/19 11:19:32;;;;;;;20.93;14.13;;;8.10;99.90;;;;;;5089677;28;20464;-79
2021/04/19 11:21:59;;;;;;;26.63;14.77;;;8.10;99.90;;;;;;5094435;28;20465;-79
2021/04/19 11:24:36;;;;;;;24.80;13.33;;;8.10;99.90;;;;;;5094028;28;20420;-79
2021/04/19 11:27:08;;;;;;;23.83;14.40;;;8.10;99.90;;;;;;5093904;28;20997;-79
2021/04/19 11:29:36;;;;;;;21.47;15.27;;;8.10;99.90;;;;;;5094306;28;20435;-79
2021/04/19 11:32:03;;;;;;;23.03;13.90;;;8.10;99.90;;;;;;5094177;28;20460;-79
2021/04/19 11:34:35;;;;;;;22.80;15.07;;;8.10;99.90;;;;;;5094073;28;20437;-76
2021/04/19 11:37:01;;;;;;;20.40;13.93;;;8.10;99.90;;;;;;5094648;28;20428;-76
2021/04/19 11:39:36;;;;;;;19.47;13.87;;;8.20;99.90;;;;;;5094290;28;20435;-75
2021/04/19 11:42:02;;;;;;;25.30;13.87;;;8.20;99.90;;;;;;5094053;28;20427;-75
2021/04/19 11:44:46;;;;;;;24.07;15.40;;;8.30;99.90;;;;;;5093922;28;20441;-75
2021/04/19 11:47:15;;;;;;;22.00;14.27;;;8.30;99.90;;;;;;5094014;28;20439;-75
2021/04/19 11:49:42;;;;;;;22.90;14.70;;;8.30;99.90;;;;;;5093922;28;20432;-75
2021/04/19 11:52:08;;;;;;;21.80;14.83;;;8.40;99.90;;;;;;5093801;28;20472;-75
2021/04/19 11:54:34;;;;;;;23.60;15.40;;;8.30;99.90;;;;;;5093750;28;20545;-75
2021/04/19 11:57:00;;;;;;;21.77;14.73;;;8.30;99.90;;;;;;5093530;28;20903;-75
2021/04/19 11:59:26;;;;;;;24.93;15.20;;;8.20;99.90;;;;;;5093851;28;20428;-75
2021/04/19 12:01:53;;;;;;;23.47;15.27;;;8.30;99.90;;;;;;5093798;28;20424;-75
2021/04/19 12:04:20;;;;;;;21.40;14.20;;;8.40;99.90;;;;;;5093346;28;20929;-74
2021/04/19 12:06:46;;;;;;;23.37;13.90;;;8.40;99.90;;;;;;5093720;28;20428;-75
2021/04/19 12:09:12;;;;;;;19.50;13.57;;;8.50;99.90;;;;;;5093696;28;20432;-75
2021/04/19 12:11:38;;;;;;;16.97;12.57;;;8.60;99.90;;;;;;5093414;28;20849;-75
2021/04/19 12:14:05;;;;;;;18.27;12.40;;;8.80;99.90;;;;;;5093288;28;20934;-75
2021/04/19 12:16:31;;;;;;;18.67;13.47;;;8.90;99.90;;;;;;5093124;28;20467;-75
2021/04/19 12:18:59;;;;;;;18.90;12.00;;;9.00;99.90;;;;;;5093255;28;20485;-75
2021/04/19 12:21:25;;;;;;;15.57;11.37;;;9.10;99.90;;;;;;5093526;28;20436;-75
2021/04/19 12:23:52;;;;;;;21.93;12.00;;;9.30;99.90;;;;;;5093487;28;20447;-75
2021/04/19 12:26:18;;;;;;;15.87;11.63;;;9.30;99.90;;;;;;5093131;28;20483;-79
2021/04/19 12:28:45;;;;;;;17.37;12.63;;;9.40;99.90;;;;;;5093434;28;20497;-79
2021/04/19 12:31:11;;;;;;;17.43;12.23;;;9.40;99.90;;;;;;5093359;28;20464;-79
2021/04/19 12:33:37;;;;;;;19.87;13.73;;;9.50;99.90;;;;;;5093400;28;20429;-80
2021/04/19 12:36:06;;;;;;;17.47;12.20;;;9.50;99.90;;;;;;5093307;28;20518;-79
2021/04/19 12:38:32;;;;;;;22.10;14.17;;;9.50;99.90;;;;;;5093398;28;20432;-79
2021/04/19 12:40:58;;;;;;;20.50;12.50;;;9.40;99.90;;;;;;5093020;28;20966;-80
2021/04/19 12:43:24;;;;;;;21.93;12.30;;;9.30;99.90;;;;;;5094136;28;20436;-80
2021/04/19 12:45:51;;;;;;;18.80;11.60;;;9.30;99.90;;;;;;5093289;28;20467;-80
2021/04/19 12:48:17;;;;;;;19.30;12.27;;;9.20;99.90;;;;;;5093565;28;20436;-80
2021/04/19 12:50:43;;;;;;;17.30;11.70;;;9.20;99.90;;;;;;5093076;28;20424;-77